Flight Track Log - Related Links

Times and Time Zones

All times are in EDT time to prevent confusion due to time zone crossing. See the DAL1062 flight status page for this flight to view local times or setup timezone preferences in your user account.

Time Position Orientation Groundspeed Altitude Reporting Facility
EDT Latitude Longitude Course Direction KTS MPH feet Rate Location/Type
Thu 10:10:53 PM 33.6264 -84.4953 45° Northeast 453 521 2,800  Level Atlanta Center
Thu 10:12:23 PM 33.5500 -84.5833 224° Southwest 286 329 7,100 2,542 Climbing Atlanta TRACON
Thu 10:13:00 PM 33.9945 -84.0000 45° Northeast  Level Estimated
Thu 10:13:17 PM 33.4833 -84.5833 180° South 290 334 8,900  Level Atlanta TRACON
Thu 10:13:53 PM 33.4531 -84.5442 133° Southeast 321 369 10,200 1,500 Climbing Atlanta Center
Thu 10:14:00 PM 34.0837 -83.8925 45° Northeast  Level Estimated
Thu 10:14:53 PM 33.4533 -84.4372 90° East 315 362 11,300  Level Atlanta Center
Thu 10:15:00 PM 34.1728 -83.7847 45° Northeast  Level Estimated
Thu 10:15:53 PM 33.4578 -84.3078 88° East 348 400 12,500  Level Atlanta Center
Thu 10:16:00 PM 34.2618 -83.6768 45° Northeast  Level Estimated
Thu 10:16:53 PM 33.5375 -84.2208 42° Northeast 354 407 14,500  Level Atlanta Center
Thu 10:17:53 PM 33.6397 -84.1536 29° Northeast 359 413 16,300 1,700 Climbing Atlanta Center
Thu 10:18:53 PM 33.7400 -84.0789 32° Northeast 398 458 17,900 1,550 Climbing Atlanta Center
Thu 10:19:53 PM 33.8067 -83.9539 57° Northeast 408 470 19,400 1,400 Climbing Atlanta Center
Thu 10:20:53 PM 33.8714 -83.8261 59° Northeast 433 498 20,700 1,300 Climbing Atlanta Center
Thu 10:21:53 PM 33.9442 -83.6958 56° Northeast 448 516 22,000 1,200 Climbing Atlanta Center
Thu 10:22:53 PM 34.0231 -83.5675 53° Northeast 466 536 23,100 1,100 Climbing Atlanta Center
Thu 10:23:53 PM 34.1039 -83.4392 53° Northeast 476 548 24,200 1,200 Climbing Atlanta Center
Thu 10:24:53 PM 34.1844 -83.3081 53° Northeast 481 554 25,500 1,400 Climbing Atlanta Center
Thu 10:25:53 PM 34.2692 -83.1767 52° Northeast 481 554 27,000 1,250 Climbing Atlanta Center
Thu 10:26:53 PM 34.3497 -83.0475 53° Northeast 481 554 28,000 950 Climbing Atlanta Center
Thu 10:27:53 PM 34.4278 -82.9156 54° Northeast 481 554 28,900 900 Climbing Atlanta Center
Thu 10:28:53 PM 34.5119 -82.7833 52° Northeast 481 554 29,800 1,050 Climbing Atlanta Center
Thu 10:29:53 PM 34.5900 -82.6511 54° Northeast 481 554 31,000 1,050 Climbing Atlanta Center
Thu 10:30:53 PM 34.6822 -82.5081 52° Northeast 481 554 31,900 850 Climbing Atlanta Center
Thu 10:31:53 PM 34.7619 -82.3775 53° Northeast 481 554 32,700 550 Climbing Atlanta Center
Thu 10:32:53 PM 34.8392 -82.2469 54° Northeast 481 554 33,000 150 Climbing Atlanta Center
Thu 10:33:53 PM 34.9044 -82.1442 52° Northeast 481 554 33,000  Level Atlanta Center
Thu 10:34:53 PM 34.9897 -82.0003 54° Northeast 481 554 33,000  Level Atlanta Center
Thu 10:35:53 PM 35.0669 -81.8667 55° Northeast 481 554 33,000  Level Atlanta Center
Thu 10:36:53 PM 35.1375 -81.7300 58° Northeast 481 554 33,000  Level Atlanta Center
Thu 10:37:53 PM 35.2142 -81.5933 55° Northeast 481 554 33,000  Level Atlanta Center
Thu 10:38:53 PM 35.2842 -81.4511 59° Northeast 486 559 33,000  Level Atlanta Center
Thu 10:39:53 PM 35.3561 -81.3114 58° Northeast 486 559 33,000  Level Atlanta Center
Thu 10:41:53 PM 35.5019 -81.0261 57° Northeast 486 559 33,000  Level Atlanta Center
Thu 10:42:53 PM 35.5778 -80.8878 56° Northeast 491 565 33,000  Level Atlanta Center
Thu 10:43:53 PM 35.6592 -80.7314 57° Northeast 491 565 33,000  Level Atlanta Center
Thu 10:44:53 PM 35.7325 -80.5903 57° Northeast 491 565 33,000  Level Atlanta Center
Thu 10:45:53 PM 35.8033 -80.4492 58° Northeast 491 565 33,000  Level Atlanta Center
Thu 10:47:52 PM 35.9408 -80.1792 58° Northeast 524 603 33,000  Level Washington Center
Thu 10:48:53 PM 36.0194 -80.0297 57° Northeast 497 572 33,000  Level Washington Center
Thu 10:49:53 PM 36.0914 -79.8922 57° Northeast 480 552 33,000  Level Washington Center
Thu 10:50:54 PM 36.1647 -79.7650 54° Northeast 487 560 33,000  Level Washington Center
Thu 10:51:52 PM 36.2489 -79.6178 55° Northeast 485 558 33,000  Level Washington Center
Thu 10:52:53 PM 36.3197 -79.4950 54° Northeast 480 552 33,000  Level Washington Center
Thu 10:53:54 PM 36.3931 -79.3567 57° Northeast 475 547 33,000  Level Washington Center
Thu 10:54:53 PM 36.4683 -79.2208 55° Northeast 480 552 33,000  Level Washington Center
Thu 10:55:54 PM 36.5539 -79.0800 53° Northeast 470 541 33,000  Level Washington Center
Thu 10:56:52 PM 36.6306 -78.9489 54° Northeast 470 541 33,000  Level Washington Center
Thu 10:57:54 PM 36.6947 -78.8169 59° Northeast 470 541 33,000  Level Washington Center
Thu 10:58:52 PM 36.7694 -78.6800 56° Northeast 475 547 33,000  Level Washington Center
Thu 10:59:53 PM 36.8436 -78.5456 55° Northeast 475 547 33,000  Level Washington Center
Thu 11:02:52 PM 37.0967 -78.1542 42° Northeast 485 558 33,000  Level Washington Center
Thu 11:03:53 PM 37.2056 -78.0353 41° Northeast 471 542 33,000  Level Washington Center
Thu 11:04:52 PM 37.3081 -77.9261 40° Northeast 471 542 33,000  Level Washington Center
Thu 11:05:52 PM 37.4017 -77.8244 41° Northeast 485 558 33,000  Level Washington Center
Thu 11:06:52 PM 37.5122 -77.7019 41° Northeast 485 558 33,000  Level Washington Center
Thu 11:07:53 PM 37.6144 -77.5869 42° Northeast 490 564 33,000  Level Washington Center
Thu 11:08:53 PM 37.7164 -77.4742 41° Northeast 490 564 33,000  Level Washington Center
Thu 11:09:52 PM 37.8203 -77.3583 41° Northeast 490 564 33,000  Level Washington Center
Thu 11:10:54 PM 37.9178 -77.2447 43° Northeast 485 558 33,000  Level Washington Center
Thu 11:11:54 PM 38.0194 -77.1311 41° Northeast 485 558 33,000  Level Washington Center
Thu 11:12:52 PM 38.1208 -77.0169 42° Northeast 485 558 33,000  Level Washington Center
Thu 11:13:53 PM 38.2225 -76.8972 43° Northeast 485 558 33,000  Level Washington Center
Thu 11:14:53 PM 38.3153 -76.7983 40° Northeast 485 558 33,000  Level Washington Center
Thu 11:15:54 PM 38.4267 -76.6969 35° Northeast 485 558 33,000  Level Washington Center
Thu 11:16:54 PM 38.5361 -76.5975 35° Northeast 485 558 33,000  Level Washington Center
Thu 11:17:53 PM 38.6494 -76.4956 35° Northeast 485 558 33,000  Level Washington Center
Thu 11:18:54 PM 38.7606 -76.3983 34° Northeast 485 558 33,000  Level Washington Center
Thu 11:19:52 PM 38.8736 -76.2983 35° Northeast 485 558 33,000  Level Washington Center
Thu 11:20:53 PM 38.9889 -76.1953 35° Northeast 490 564 33,000 -49 Level Washington Center
Thu 11:21:54 PM 39.1167 -76.0919 32° Northeast 490 564 32,900  Descending Washington Center
Thu 11:22:52 PM 39.2294 -75.9908 35° Northeast 490 564 33,000  Climbing Washington Center
Thu 11:23:52 PM 39.3464 -75.8947 32° Northeast 490 564 32,900 -50 Descending Washington Center
Thu 11:24:52 PM 39.4614 -75.8011 32° Northeast 490 564 32,900  Level Washington Center
Thu 11:25:53 PM 39.5781 -75.7072 32° Northeast 490 564 32,900  Level Washington Center
Thu 11:26:54 PM 39.6678 -75.5753 49° Northeast 479 551 32,900 -303 Level Washington Center
Thu 11:27:52 PM 39.7258 -75.4161 65° Northeast 472 543 32,300 -1,109 Descending Washington Center
Thu 11:28:53 PM 39.7861 -75.2619 63° Northeast 477 549 30,700 -1,459 Descending Washington Center
Thu 11:30:20 PM 39.8672 -75.0442 64° Northeast 472 543 28,700 -1,531 Descending New York Center
Thu 11:31:18 PM 39.9333 -74.8858 61° Northeast 479 551 27,000 -857 Descending New York Center
Thu 11:32:19 PM 40.0131 -74.7494 53° Northeast 479 551 27,000  Level New York Center
Thu 11:33:19 PM 40.0847 -74.6044 57° Northeast 479 551 27,000 -50 Level New York Center
Thu 11:34:18 PM 40.1708 -74.4489 54° Northeast 473 544 26,900 -403 Descending New York Center
Thu 11:35:18 PM 40.2481 -74.3117 54° Northeast 478 550 26,200 -1,150 Descending New York Center
Thu 11:36:18 PM 40.3231 -74.1739 54° Northeast 478 550 24,600 -1,623 Descending New York Center
Thu 11:37:20 PM 40.3978 -74.0358 55° Northeast 466 536 22,900 -1,434 Descending New York Center
Thu 11:39:43 PM 40.5658 -73.7272 54° Northeast 442 509 19,700 -1,153 Descending Boston Center
Thu 11:40:43 PM 40.6356 -73.5981 55° Northeast 436 502 19,000 -350 Descending Boston Center
Thu 11:41:43 PM 40.7056 -73.4692 54° Northeast 435 501 19,000  Level Boston Center
Thu 11:42:46 PM 40.7750 -73.3389 55° Northeast 435 501 19,000  Level Boston Center
Thu 11:43:47 PM 40.8617 -73.2264 44° Northeast 439 505 19,000 -1,119 Level Boston Center
Thu 11:45:00 PM 40.9803 -73.0842 42° Northeast 431 496 16,500 -2,020 Descending Boston Center
Thu 11:45:25 PM 41.0172 -73.0406 42° Northeast 428 493 15,700 -1,469 Descending Boston Center
Thu 11:45:49 PM 41.0419 -73.0150 38° Northeast 427 491 15,300 -1,574 Descending Boston Center
Thu 11:46:26 PM 41.1028 -72.9400 43° Northeast 410 472 14,100 -1,475 Descending Boston Center
Thu 11:46:50 PM 41.1283 -72.9128 39° Northeast 416 479 13,800 -1,385 Descending Boston Center
Thu 11:47:18 PM 41.1825 -72.8458 43° Northeast 414 476 12,900 -1,279 Descending Boston Center
Thu 11:47:51 PM 41.2147 -72.8100 40° Northeast 416 479 12,500 -1,238 Descending Boston Center
Thu 11:48:21 PM 41.2672 -72.7472 42° Northeast 410 472 11,600 -1,552 Descending Boston Center
Thu 11:48:49 PM 41.3136 -72.6961 40° Northeast 399 459 11,000 -396 Descending Boston Center
Thu 11:49:52 PM 41.4061 -72.6772 North 340 391 11,000 -396 Level Boston Center
Thu 11:50:20 PM 41.4533 -72.6703 North 327 376 10,400 -1,377 Descending Boston Center
Thu 11:50:53 PM 41.4961 -72.6636 North 328 377 9,600 -1,574 Descending Boston Center
Thu 11:51:21 PM 41.5400 -72.6581 North 317 365 8,800 -1,574 Descending Boston Center
Thu 11:51:54 PM 41.5839 -72.6497 North 323 372 8,000 -1,700 Descending Boston Center
Thu 11:52:21 PM 41.6272 -72.6431 North 319 367 7,100 -1,770 Descending Boston Center
Thu 11:52:55 PM 41.6700 -72.6367 North 315 362 6,200 -1,742 Descending Boston Center
Thu 11:53:23 PM 41.7142 -72.6283 North 304 350 5,300 -1,241 Descending Boston Center
Thu 11:53:53 PM 41.7586 -72.6225 North 301 346 5,000 -149 Descending Boston Center
Thu 11:55:24 PM 41.8744 -72.6047 346° North 286 329 5,000  Level Boston Center
Thu 11:55:55 PM 41.9089 -72.5722 35° Northeast 286 329 5,000 -492 Level Boston Center
Thu 11:56:25 PM 41.9308 -72.5381 49° Northeast 262 302 4,500 -1,082 Descending Boston Center
Thu 11:56:56 PM 41.9581 -72.5008 45° Northeast 263 303 3,900 -873 Descending Boston Center
Thu 11:57:20 PM 41.9769 -72.4794 40° Northeast 234 269 3,700 -857 Descending Boston Center
Thu 11:57:59 PM 42.0144 -72.4789 North 206 237 3,000 -1,082 Descending Boston Center
Thu 11:58:21 PM 42.0206 -72.4978 294° West 174 200 2,600 -984 Descending Boston Center
Thu 11:59:00 PM 42.0269 -72.5425 281° West 179 206 2,000 -492 Descending Boston Center
Thu 11:59:22 PM 42.0244 -72.5658 262° West 177 204 2,100 -316 Climbing Boston Center
Fri 12:00:16 AM 42.0044 -72.6019 233° Southwest 123 142 1,600 -600 Descending Boston Center
Fri 12:01:02 AM 41.9844 -72.6281 224° Southwest 132 152 1,100 -712 Descending Boston Center
Fri 12:01:15 AM 41.9781 -72.6358 222° Southwest 123 142 900 -787 Descending Boston Center
Fri 12:02:03 AM 41.9547 -72.6672 225° Southwest 137 158 300 -440 Descending Boston Center
Fri 12:03:04 AM 41.9333 -72.6964 225° Southwest 136 157 100 -197 Descending Boston Center

Login

Don't have an account? Register now (free) for customized features, flight alerts, and more!